createdAt,value
2023-03-24T00:00:08.380Z,996.49
2023-03-24T00:01:08.427Z,996.45
2023-03-24T00:02:08.472Z,996.44
2023-03-24T00:03:08.603Z,996.43
2023-03-24T00:04:08.536Z,996.43
2023-03-24T00:05:08.540Z,996.45
2023-03-24T00:06:08.546Z,996.47
2023-03-24T00:07:08.571Z,996.42
2023-03-24T00:08:08.593Z,996.51
2023-03-24T00:09:08.620Z,996.44
2023-03-24T00:10:08.645Z,996.46
2023-03-24T00:11:08.686Z,996.47
2023-03-24T00:12:08.699Z,996.35
2023-03-24T00:13:08.728Z,996.37
2023-03-24T00:14:08.752Z,996.36
2023-03-24T00:15:08.797Z,996.34
2023-03-24T00:16:08.855Z,996.32
2023-03-24T00:17:08.837Z,996.30
2023-03-24T00:18:08.914Z,996.24
2023-03-24T00:19:08.890Z,996.24
2023-03-24T00:20:08.919Z,996.22
2023-03-24T00:21:08.968Z,996.15
2023-03-24T00:22:08.968Z,996.12
2023-03-24T00:23:08.998Z,996.12
2023-03-24T00:24:09.022Z,996.05
2023-03-24T00:25:09.059Z,996.05
2023-03-24T00:26:09.114Z,996.07
2023-03-24T00:27:09.108Z,996.04
2023-03-24T00:28:09.131Z,995.97
2023-03-24T00:29:09.162Z,996.00
2023-03-24T00:30:09.196Z,995.99
2023-03-24T00:31:09.219Z,995.96
2023-03-24T00:32:09.246Z,995.96
2023-03-24T00:33:09.318Z,995.93
2023-03-24T00:34:09.296Z,995.90
2023-03-24T00:35:09.327Z,995.89
2023-03-24T00:36:09.376Z,995.94
2023-03-24T00:37:09.412Z,995.86
2023-03-24T00:38:09.411Z,995.85
2023-03-24T00:39:09.435Z,995.89
2023-03-24T00:40:09.459Z,995.84
2023-03-24T00:41:09.487Z,995.86
2023-03-24T00:42:09.525Z,995.86
2023-03-24T00:43:09.543Z,995.83
2023-03-24T00:44:09.577Z,995.81
2023-03-24T00:45:09.597Z,995.79
2023-03-24T00:46:09.622Z,995.81
2023-03-24T00:47:09.655Z,995.80
2023-03-24T00:48:09.719Z,995.74
2023-03-24T00:49:09.706Z,995.75
2023-03-24T00:50:09.733Z,995.79
2023-03-24T00:51:09.761Z,995.72
2023-03-24T00:52:09.787Z,995.69
2023-03-24T00:53:09.839Z,995.71
2023-03-24T00:54:09.840Z,995.72
2023-03-24T00:55:09.870Z,995.76
2023-03-24T00:56:09.893Z,995.70
2023-03-24T00:57:09.952Z,995.70
2023-03-24T00:58:09.949Z,995.67
2023-03-24T00:59:10.660Z,995.68
2023-03-24T01:00:10.002Z,995.66
2023-03-24T01:01:10.081Z,995.67
2023-03-24T01:02:10.106Z,995.74
2023-03-24T01:03:10.159Z,995.66
2023-03-24T01:04:10.135Z,995.66
2023-03-24T01:05:10.138Z,995.62
2023-03-24T01:06:10.164Z,995.65
2023-03-24T01:07:10.192Z,995.56
2023-03-24T01:08:10.224Z,995.61
2023-03-24T01:09:10.267Z,995.60
2023-03-24T01:10:10.283Z,995.54
2023-03-24T01:11:10.297Z,995.63
2023-03-24T01:12:10.329Z,995.57
2023-03-24T01:13:10.440Z,995.58
2023-03-24T01:14:10.379Z,995.56
2023-03-24T01:15:10.430Z,995.57
2023-03-24T01:16:10.442Z,995.60
2023-03-24T01:17:10.459Z,995.55
2023-03-24T01:18:10.522Z,995.57
2023-03-24T01:19:10.544Z,995.52
2023-03-24T01:20:10.537Z,995.51
2023-03-24T01:21:10.571Z,995.53
2023-03-24T01:22:10.591Z,995.48
2023-03-24T01:23:10.638Z,995.47
2023-03-24T01:24:10.664Z,995.48
2023-03-24T01:25:10.692Z,995.45
2023-03-24T01:26:10.698Z,995.48
2023-03-24T01:27:10.735Z,995.46
2023-03-24T01:28:10.757Z,995.46
2023-03-24T01:29:10.783Z,995.48
2023-03-24T01:30:10.806Z,995.44
2023-03-24T01:31:10.876Z,995.41
2023-03-24T01:32:10.861Z,995.44
2023-03-24T01:33:10.895Z,995.41
2023-03-24T01:34:10.918Z,995.45
2023-03-24T01:35:10.944Z,995.41
2023-03-24T01:36:10.984Z,995.36
2023-03-24T01:37:11.002Z,995.37
2023-03-24T01:38:11.024Z,995.27
2023-03-24T01:39:11.053Z,995.26
2023-03-24T01:40:11.082Z,995.25
2023-03-24T01:41:11.131Z,995.26
2023-03-24T01:42:11.141Z,995.21
2023-03-24T01:43:11.167Z,995.20
2023-03-24T01:44:11.196Z,995.19
2023-03-24T01:45:11.217Z,995.21
2023-03-24T01:46:11.288Z,995.16
2023-03-24T01:47:11.271Z,995.13
2023-03-24T01:48:11.321Z,995.15
2023-03-24T01:49:11.325Z,995.10
2023-03-24T01:50:11.355Z,995.11
2023-03-24T01:51:11.382Z,995.11
2023-03-24T01:52:11.408Z,995.06
2023-03-24T01:53:11.433Z,995.01
2023-03-24T01:54:11.460Z,995.02
2023-03-24T01:55:11.490Z,995.05
2023-03-24T01:56:11.514Z,995.04
2023-03-24T01:57:11.588Z,995.02
2023-03-24T01:58:11.569Z,994.98
2023-03-24T01:59:11.597Z,994.96
2023-03-24T02:00:11.657Z,994.96
2023-03-24T02:01:11.694Z,994.93
2023-03-24T02:02:11.677Z,994.90
2023-03-24T02:03:11.713Z,994.83
2023-03-24T02:04:11.764Z,994.79
2023-03-24T02:05:11.763Z,994.76
2023-03-24T02:06:11.787Z,994.73
2023-03-24T02:07:11.816Z,994.69
2023-03-24T02:08:11.846Z,994.67
2023-03-24T02:09:11.873Z,994.65
2023-03-24T02:10:11.897Z,994.60
2023-03-24T02:11:11.925Z,994.57
2023-03-24T02:12:11.950Z,994.52
2023-03-24T02:13:11.997Z,994.50
2023-03-24T02:14:12.014Z,994.52
2023-03-24T02:15:12.035Z,994.55
2023-03-24T02:16:12.074Z,994.49
2023-03-24T02:17:12.089Z,994.49
2023-03-24T02:18:12.146Z,994.42
2023-03-24T02:19:12.145Z,994.41
2023-03-24T02:20:12.172Z,994.34
2023-03-24T02:21:12.200Z,994.33
2023-03-24T02:22:12.226Z,994.30
2023-03-24T02:23:12.254Z,994.27
2023-03-24T02:24:12.280Z,994.26
2023-03-24T02:25:12.318Z,994.33
2023-03-24T02:26:12.337Z,994.37
2023-03-24T02:27:12.360Z,994.27
2023-03-24T02:28:12.389Z,994.28
2023-03-24T02:29:12.455Z,994.19
2023-03-24T02:30:12.448Z,994.23
2023-03-24T02:31:12.502Z,994.18
2023-03-24T02:32:12.503Z,994.22
2023-03-24T02:33:12.530Z,994.17
2023-03-24T02:34:12.554Z,994.15
2023-03-24T02:35:12.580Z,994.20
2023-03-24T02:36:12.618Z,994.18
2023-03-24T02:37:12.634Z,994.16
2023-03-24T02:38:12.669Z,994.22
2023-03-24T02:39:12.697Z,994.19
2023-03-24T02:40:12.719Z,994.16
2023-03-24T02:41:12.748Z,994.10
2023-03-24T02:42:12.772Z,994.18
2023-03-24T02:43:12.801Z,994.13
2023-03-24T02:44:12.827Z,994.10
2023-03-24T02:45:12.880Z,994.13
2023-03-24T02:46:12.922Z,994.12
2023-03-24T02:47:12.913Z,994.13
2023-03-24T02:48:12.935Z,994.18
2023-03-24T02:49:12.960Z,994.16
2023-03-24T02:50:12.991Z,994.15
2023-03-24T02:51:13.038Z,994.19
2023-03-24T02:52:13.044Z,994.23
2023-03-24T02:53:13.070Z,994.22
2023-03-24T02:54:13.103Z,994.17
2023-03-24T02:55:13.139Z,994.18
2023-03-24T02:56:13.161Z,994.16
2023-03-24T02:57:13.177Z,994.15
2023-03-24T02:58:13.208Z,994.23
2023-03-24T02:59:13.234Z,994.18
2023-03-24T03:00:13.271Z,994.24
2023-03-24T03:01:13.361Z,994.21
2023-03-24T03:02:13.318Z,994.25
2023-03-24T03:03:13.343Z,994.27
2023-03-24T03:04:13.433Z,994.24
2023-03-24T03:05:13.397Z,994.17
2023-03-24T03:06:13.424Z,994.23
2023-03-24T03:07:13.451Z,994.25
2023-03-24T03:08:13.497Z,994.27
2023-03-24T03:09:13.506Z,994.28
2023-03-24T03:10:13.534Z,994.27
2023-03-24T03:11:13.567Z,994.22
2023-03-24T03:12:13.601Z,994.26
2023-03-24T03:13:13.630Z,994.28
2023-03-24T03:14:13.650Z,994.29
2023-03-24T03:15:13.677Z,994.24
2023-03-24T03:16:13.758Z,994.26
2023-03-24T03:17:13.755Z,994.17
2023-03-24T03:18:13.753Z,994.19
2023-03-24T03:19:13.782Z,994.16
2023-03-24T03:20:13.808Z,994.19
2023-03-24T03:21:13.842Z,994.21
2023-03-24T03:22:13.869Z,994.05
2023-03-24T03:23:13.892Z,994.18
2023-03-24T03:24:13.930Z,994.22
2023-03-24T03:25:13.948Z,994.21
2023-03-24T03:26:13.980Z,994.21
2023-03-24T03:27:14.005Z,994.14
2023-03-24T03:28:14.037Z,994.14
2023-03-24T03:29:14.062Z,994.12
2023-03-24T03:30:14.088Z,994.12
2023-03-24T03:31:14.148Z,994.08
2023-03-24T03:32:14.142Z,994.10
2023-03-24T03:33:14.232Z,994.09
2023-03-24T03:34:14.198Z,994.03
2023-03-24T03:35:14.226Z,994.07
2023-03-24T03:36:14.290Z,994.11
2023-03-24T03:37:14.281Z,994.10
2023-03-24T03:38:14.310Z,994.04
2023-03-24T03:39:14.335Z,994.07
2023-03-24T03:40:14.366Z,994.01
2023-03-24T03:41:14.399Z,993.97
2023-03-24T03:42:18.256Z,993.99
2023-03-24T03:43:14.446Z,994.02
2023-03-24T03:44:14.489Z,994.05
2023-03-24T03:45:14.509Z,994.01
2023-03-24T03:46:14.561Z,993.99
2023-03-24T03:47:14.556Z,993.99
2023-03-24T03:48:14.625Z,994.04
2023-03-24T03:49:14.636Z,993.93
2023-03-24T03:50:14.640Z,993.94
2023-03-24T03:51:14.760Z,993.90
2023-03-24T03:52:14.697Z,993.94
2023-03-24T03:53:14.732Z,993.99
2023-03-24T03:54:14.761Z,993.97
2023-03-24T03:55:14.778Z,993.94
2023-03-24T03:56:14.803Z,993.91
2023-03-24T03:57:14.830Z,993.91
2023-03-24T03:58:14.858Z,993.98
2023-03-24T03:59:14.884Z,993.99
2023-03-24T04:00:14.912Z,994.05
2023-03-24T04:01:14.948Z,994.03
2023-03-24T04:02:15.001Z,994.07
2023-03-24T04:03:15.063Z,994.11
2023-03-24T04:04:15.024Z,994.16
2023-03-24T04:05:15.088Z,994.18
2023-03-24T04:06:15.077Z,994.09
2023-03-24T04:07:15.110Z,994.12
2023-03-24T04:08:15.141Z,994.15
2023-03-24T04:09:15.159Z,994.17
2023-03-24T04:10:15.188Z,994.10
2023-03-24T04:11:15.222Z,994.14
2023-03-24T04:12:15.244Z,994.09
2023-03-24T04:13:15.274Z,994.10
2023-03-24T04:14:15.307Z,994.08
2023-03-24T04:15:15.324Z,994.05
2023-03-24T04:16:15.393Z,994.04
2023-03-24T04:17:15.380Z,994.14
2023-03-24T04:18:15.435Z,994.13
2023-03-24T04:19:15.434Z,994.13
2023-03-24T04:20:15.470Z,994.11
2023-03-24T04:21:15.511Z,994.07
2023-03-24T04:22:15.518Z,994.15
2023-03-24T04:23:15.547Z,994.12
2023-03-24T04:24:15.572Z,994.15
2023-03-24T04:25:15.599Z,994.11
2023-03-24T04:26:15.631Z,994.16
2023-03-24T04:27:15.656Z,994.15
2023-03-24T04:28:15.683Z,994.21
2023-03-24T04:29:15.709Z,994.18
2023-03-24T04:30:16.929Z,994.15
2023-03-24T04:31:15.785Z,994.17
2023-03-24T04:32:15.798Z,994.15
2023-03-24T04:33:15.819Z,994.23
2023-03-24T04:34:15.852Z,994.19
2023-03-24T04:35:15.877Z,994.16
2023-03-24T04:36:15.946Z,994.17
2023-03-24T04:37:15.949Z,994.16
2023-03-24T04:38:15.961Z,994.23
2023-03-24T04:39:15.986Z,994.29
2023-03-24T04:40:16.017Z,994.28
2023-03-24T04:41:16.041Z,994.30
2023-03-24T04:42:16.093Z,994.28
2023-03-24T04:43:16.096Z,994.31
2023-03-24T04:44:16.126Z,994.30
2023-03-24T04:45:16.152Z,994.32
2023-03-24T04:46:16.226Z,994.31
2023-03-24T04:47:16.207Z,994.38
2023-03-24T04:48:16.239Z,994.35
2023-03-24T04:49:16.262Z,994.32
2023-03-24T04:50:16.290Z,994.41
2023-03-24T04:51:16.322Z,994.39
2023-03-24T04:52:17.883Z,994.35
2023-03-24T04:53:16.394Z,994.42
2023-03-24T04:54:16.403Z,994.49
2023-03-24T04:55:16.428Z,994.52
2023-03-24T04:56:16.471Z,994.62
2023-03-24T04:57:16.483Z,994.66
2023-03-24T04:58:16.517Z,994.70
2023-03-24T04:59:16.539Z,994.81
2023-03-24T05:00:16.566Z,994.84
2023-03-24T05:01:16.637Z,994.87
2023-03-24T05:02:16.624Z,994.94
2023-03-24T05:03:16.651Z,995.07
2023-03-24T05:04:16.746Z,995.06
2023-03-24T05:05:16.706Z,995.09
2023-03-24T05:06:16.733Z,995.11
2023-03-24T05:07:16.755Z,995.14
2023-03-24T05:08:16.792Z,995.17
2023-03-24T05:09:16.831Z,995.06
2023-03-24T05:10:16.838Z,995.19
2023-03-24T05:11:16.867Z,995.05
2023-03-24T05:12:16.893Z,995.15
2023-03-24T05:13:16.918Z,995.22
2023-03-24T05:14:16.948Z,995.22
2023-03-24T05:15:16.975Z,995.15
2023-03-24T05:16:17.050Z,995.20
2023-03-24T05:17:17.025Z,995.23
2023-03-24T05:18:17.056Z,995.26
2023-03-24T05:19:17.089Z,995.29
2023-03-24T05:20:17.116Z,995.29
2023-03-24T05:21:17.135Z,995.33
2023-03-24T05:22:17.163Z,995.34
2023-03-24T05:23:17.190Z,995.40
2023-03-24T05:24:17.211Z,995.43
2023-03-24T05:25:17.255Z,995.51
2023-03-24T05:26:17.265Z,995.50
2023-03-24T05:27:17.290Z,995.57
2023-03-24T05:28:17.324Z,995.64
2023-03-24T05:29:17.345Z,995.58
2023-03-24T05:30:17.373Z,995.58
2023-03-24T05:31:17.460Z,995.66
2023-03-24T05:32:17.421Z,995.70
2023-03-24T05:33:17.448Z,995.70
2023-03-24T05:34:17.475Z,995.69
2023-03-24T05:35:17.512Z,995.70
2023-03-24T05:36:17.569Z,995.68
2023-03-24T05:37:17.568Z,995.65
2023-03-24T05:38:17.582Z,995.63
2023-03-24T05:39:17.609Z,995.73
2023-03-24T05:40:17.641Z,995.75
2023-03-24T05:41:17.678Z,995.80
2023-03-24T05:42:17.687Z,995.78
2023-03-24T05:43:17.718Z,995.83
2023-03-24T05:44:17.742Z,995.86
2023-03-24T05:45:17.765Z,995.84
2023-03-24T05:46:17.830Z,995.85
2023-03-24T05:47:17.826Z,995.84
2023-03-24T05:48:17.846Z,995.89
2023-03-24T05:49:17.872Z,995.90
2023-03-24T05:50:17.901Z,995.84
2023-03-24T05:51:17.926Z,995.92
2023-03-24T05:52:17.952Z,995.88
2023-03-24T05:53:17.980Z,995.91
2023-03-24T05:54:18.010Z,995.94
2023-03-24T05:55:18.030Z,996.00
2023-03-24T05:56:18.056Z,995.99
2023-03-24T05:57:18.104Z,996.03
2023-03-24T05:58:18.111Z,996.02
2023-03-24T05:59:18.134Z,996.05
2023-03-24T06:00:18.165Z,996.06
2023-03-24T06:01:18.213Z,996.13
2023-03-24T06:02:18.224Z,996.04
2023-03-24T06:03:18.389Z,996.10
2023-03-24T06:04:18.320Z,996.08
2023-03-24T06:05:18.303Z,996.08
2023-03-24T06:06:18.321Z,996.06
2023-03-24T06:07:18.347Z,996.07
2023-03-24T06:08:18.374Z,996.08
2023-03-24T06:09:18.399Z,996.15
2023-03-24T06:10:18.466Z,996.12
2023-03-24T06:11:18.460Z,996.10
2023-03-24T06:12:18.481Z,996.11
2023-03-24T06:13:18.531Z,996.16
2023-03-24T06:14:18.544Z,996.24
2023-03-24T06:15:18.560Z,996.20
2023-03-24T06:16:18.751Z,996.31
2023-03-24T06:17:18.618Z,996.39
2023-03-24T06:18:18.638Z,996.52
2023-03-24T06:19:18.665Z,996.53
2023-03-24T06:20:18.712Z,996.54
2023-03-24T06:21:18.719Z,996.65
2023-03-24T06:23:18.779Z,996.65
2023-03-24T06:24:18.793Z,996.71
2023-03-24T06:25:18.820Z,996.69
2023-03-24T06:26:18.846Z,996.76
2023-03-24T06:27:18.877Z,996.72
2023-03-24T06:28:18.902Z,996.78
2023-03-24T06:29:18.982Z,996.87
2023-03-24T06:30:18.958Z,996.90
2023-03-24T06:31:19.004Z,996.85
2023-03-24T06:32:19.007Z,996.83
2023-03-24T06:33:19.038Z,996.80
2023-03-24T06:34:19.082Z,996.86
2023-03-24T06:35:19.089Z,996.87
2023-03-24T06:36:19.114Z,996.82
2023-03-24T06:37:19.140Z,996.83
2023-03-24T06:38:19.164Z,996.79
2023-03-24T06:39:19.217Z,996.80
2023-03-24T06:40:19.220Z,996.80
2023-03-24T06:41:19.245Z,996.91
2023-03-24T06:42:19.274Z,996.85
2023-03-24T06:43:19.296Z,996.84
2023-03-24T06:44:19.327Z,996.88
2023-03-24T06:45:19.385Z,996.94
2023-03-24T06:46:19.426Z,997.05
2023-03-24T06:47:19.407Z,997.09
2023-03-24T06:48:19.448Z,997.12
2023-03-24T06:49:19.460Z,997.10
2023-03-24T06:50:19.489Z,997.13
2023-03-24T06:51:19.515Z,997.09
2023-03-24T06:52:19.537Z,997.02
2023-03-24T06:53:19.565Z,997.03
2023-03-24T06:54:19.590Z,996.97
2023-03-24T06:55:19.617Z,997.03
2023-03-24T06:56:19.646Z,997.18
2023-03-24T06:57:19.669Z,997.24
2023-03-24T06:58:19.698Z,997.34
2023-03-24T06:59:19.722Z,997.44
2023-03-24T07:00:19.758Z,997.39
2023-03-24T07:01:19.818Z,997.39
2023-03-24T07:02:19.808Z,997.32
2023-03-24T07:03:19.900Z,997.34
2023-03-24T07:04:19.858Z,997.34
2023-03-24T07:05:19.884Z,997.39
2023-03-24T07:06:19.916Z,997.36
2023-03-24T07:08:05.905Z,997.40
2023-03-24T07:09:19.993Z,997.32
2023-03-24T07:10:20.020Z,997.34
2023-03-24T07:11:20.040Z,997.33
2023-03-24T07:12:20.083Z,997.31
2023-03-24T07:13:20.092Z,997.40
2023-03-24T07:14:20.121Z,997.48
2023-03-24T07:15:20.145Z,997.49
2023-03-24T07:16:20.230Z,997.56
2023-03-24T07:17:20.228Z,997.64
2023-03-24T07:18:20.226Z,997.58
2023-03-24T07:19:20.257Z,997.61
2023-03-24T07:20:20.278Z,997.60
2023-03-24T07:21:20.303Z,997.60
2023-03-24T07:22:20.350Z,997.64
2023-03-24T07:23:20.358Z,997.62
2023-03-24T07:24:20.384Z,997.59
2023-03-24T07:25:20.409Z,997.47
2023-03-24T07:26:20.439Z,997.47
2023-03-24T07:27:20.463Z,997.49
2023-03-24T07:28:20.490Z,997.49
2023-03-24T07:29:20.517Z,997.55
2023-03-24T07:30:24.340Z,997.52
2023-03-24T07:31:20.632Z,997.57
2023-03-24T07:32:20.593Z,997.55
2023-03-24T07:33:20.649Z,997.60
2023-03-24T07:34:20.647Z,997.57
2023-03-24T07:35:20.673Z,997.61
2023-03-24T07:36:20.812Z,997.61
2023-03-24T07:37:20.726Z,997.60
2023-03-24T07:38:20.753Z,997.61
2023-03-24T07:39:20.783Z,997.61
2023-03-24T07:40:20.807Z,997.63
2023-03-24T07:41:20.836Z,997.66
2023-03-24T07:42:20.864Z,997.61
2023-03-24T07:43:20.886Z,997.70
2023-03-24T07:44:20.914Z,997.64
2023-03-24T07:45:20.959Z,997.68
2023-03-24T07:46:21.008Z,997.71
2023-03-24T07:47:21.019Z,997.67
2023-03-24T07:48:21.019Z,997.77
2023-03-24T07:49:21.120Z,997.82
2023-03-24T07:50:21.076Z,997.83
2023-03-24T07:51:21.119Z,997.85
2023-03-24T07:52:21.131Z,997.88
2023-03-24T07:53:21.153Z,997.86
2023-03-24T07:54:21.196Z,997.84
2023-03-24T07:55:21.253Z,997.83
2023-03-24T07:56:21.258Z,997.79
2023-03-24T07:57:21.285Z,997.81
2023-03-24T07:58:21.285Z,997.77
2023-03-24T07:59:21.349Z,997.82
2023-03-24T08:00:21.413Z,997.76
2023-03-24T08:01:21.364Z,997.78
2023-03-24T08:02:21.507Z,997.81
2023-03-24T08:03:21.657Z,997.85
2023-03-24T08:04:21.505Z,997.91
2023-03-24T08:05:21.489Z,997.91
2023-03-24T08:06:21.498Z,997.96
2023-03-24T08:07:21.524Z,997.98
2023-03-24T08:08:21.551Z,997.92
2023-03-24T08:09:21.618Z,998.01
2023-03-24T08:10:21.608Z,997.96
2023-03-24T08:11:21.634Z,997.93
2023-03-24T08:12:21.664Z,998.00
2023-03-24T08:13:21.682Z,998.05
2023-03-24T08:14:22.030Z,998.03
2023-03-24T08:15:21.738Z,998.02
2023-03-24T08:16:21.857Z,997.99
2023-03-24T08:17:21.789Z,998.01
2023-03-24T08:18:21.818Z,998.02
2023-03-24T08:19:21.846Z,998.04
2023-03-24T08:20:21.875Z,998.01
2023-03-24T08:21:21.919Z,997.99
2023-03-24T08:22:21.926Z,997.98
2023-03-24T08:23:21.953Z,997.93
2023-03-24T08:24:21.979Z,998.00
2023-03-24T08:25:22.003Z,997.98
2023-03-24T08:26:22.036Z,997.98
2023-03-24T08:27:22.058Z,997.95
2023-03-24T08:28:22.090Z,998.00
2023-03-24T08:29:22.115Z,997.97
2023-03-24T08:30:22.195Z,997.97
2023-03-24T08:31:22.207Z,997.90
2023-03-24T08:32:22.216Z,997.90
2023-03-24T08:33:22.228Z,997.93
2023-03-24T08:34:22.257Z,997.92
2023-03-24T08:35:22.282Z,997.93
2023-03-24T08:36:22.384Z,997.96
2023-03-24T08:37:22.362Z,997.96
2023-03-24T08:38:22.372Z,997.95
2023-03-24T08:39:22.942Z,997.95
2023-03-24T08:40:22.432Z,997.93
2023-03-24T08:41:22.458Z,997.96
2023-03-24T08:42:22.486Z,997.91
2023-03-24T08:43:22.515Z,997.83
2023-03-24T08:44:22.548Z,997.78
2023-03-24T08:45:22.573Z,997.84
2023-03-24T08:46:22.641Z,997.84
2023-03-24T08:47:22.630Z,997.81
2023-03-24T08:48:22.657Z,997.78
2023-03-24T08:49:22.686Z,997.76
2023-03-24T08:50:22.716Z,997.85
2023-03-24T08:51:22.742Z,997.89
2023-03-24T08:52:22.773Z,997.90
2023-03-24T08:53:22.910Z,997.98
2023-03-24T08:54:22.833Z,997.94
2023-03-24T08:55:22.855Z,998.01
2023-03-24T08:56:22.888Z,998.01
2023-03-24T08:57:22.914Z,997.92
2023-03-24T08:58:22.948Z,997.86
2023-03-24T08:59:22.988Z,997.85
2023-03-24T09:00:23.012Z,998.03
2023-03-24T09:01:23.293Z,997.98
2023-03-24T09:02:23.065Z,998.04
2023-03-24T09:03:23.191Z,997.93
2023-03-24T09:04:23.137Z,997.97
2023-03-24T09:05:33.192Z,997.98
2023-03-24T09:06:23.180Z,997.97
2023-03-24T09:07:23.206Z,998.06
2023-03-24T09:08:23.238Z,998.10
2023-03-24T09:09:23.282Z,998.10
2023-03-24T09:10:23.294Z,998.27
2023-03-24T09:11:23.324Z,998.05
2023-03-24T09:12:23.357Z,998.13
2023-03-24T09:13:23.380Z,998.29
2023-03-24T09:14:23.410Z,998.19
2023-03-24T09:15:23.450Z,998.06
2023-03-24T09:16:23.544Z,998.13
2023-03-24T09:17:23.521Z,998.21
2023-03-24T09:18:23.571Z,998.32
2023-03-24T09:19:23.557Z,998.26
2023-03-24T09:20:23.613Z,998.27
2023-03-24T09:21:23.632Z,998.25
2023-03-24T09:22:23.647Z,998.15
2023-03-24T09:23:23.679Z,998.19
2023-03-24T09:24:23.707Z,998.16
2023-03-24T09:25:23.770Z,998.33
2023-03-24T09:26:23.765Z,998.29
2023-03-24T09:27:23.799Z,998.21
2023-03-24T09:28:23.828Z,998.20
2023-03-24T09:29:23.848Z,998.16
2023-03-24T09:30:23.924Z,998.33
2023-03-24T09:31:23.946Z,998.09
2023-03-24T09:32:23.946Z,998.09
2023-03-24T09:33:23.968Z,998.08
2023-03-24T09:34:23.996Z,998.25
2023-03-24T09:35:24.024Z,998.14
2023-03-24T09:36:24.126Z,998.09
2023-03-24T09:37:24.082Z,998.11
2023-03-24T09:38:24.128Z,998.05
2023-03-24T09:39:24.149Z,998.25
2023-03-24T09:40:24.174Z,998.08
2023-03-24T09:41:24.367Z,998.07
2023-03-24T09:42:24.235Z,998.12
2023-03-24T09:43:24.266Z,998.27
2023-03-24T09:44:24.286Z,998.24
2023-03-24T09:45:24.318Z,998.10
2023-03-24T09:46:24.379Z,998.11
2023-03-24T09:47:24.389Z,998.09
2023-03-24T09:48:24.404Z,998.07
2023-03-24T09:49:24.431Z,998.12
2023-03-24T09:50:24.557Z,998.13
2023-03-24T09:51:24.501Z,998.25
2023-03-24T09:52:24.530Z,998.11
2023-03-24T09:53:24.549Z,998.14
2023-03-24T09:54:24.584Z,998.14
2023-03-24T09:55:24.610Z,998.25
2023-03-24T09:56:24.650Z,998.19
2023-03-24T09:57:24.707Z,998.22
2023-03-24T09:58:24.699Z,998.19
2023-03-24T09:59:24.726Z,998.18
2023-03-24T10:00:24.790Z,998.19
2023-03-24T10:01:24.872Z,998.19
2023-03-24T10:02:24.827Z,998.22
2023-03-24T10:03:24.889Z,998.24
2023-03-24T10:04:24.877Z,998.34
2023-03-24T10:05:24.901Z,998.22
2023-03-24T10:06:24.931Z,998.40
2023-03-24T10:07:24.974Z,998.21
2023-03-24T10:08:24.991Z,998.28
2023-03-24T10:09:25.029Z,998.41
2023-03-24T10:10:25.050Z,998.13
2023-03-24T10:11:25.081Z,998.26
2023-03-24T10:12:25.112Z,998.49
2023-03-24T10:13:25.165Z,998.21
2023-03-24T10:14:25.166Z,998.44
2023-03-24T10:15:37.142Z,998.27
2023-03-24T10:16:25.241Z,998.24
2023-03-24T10:17:25.358Z,998.34
2023-03-24T10:18:25.282Z,998.48
2023-03-24T10:19:25.312Z,998.28
2023-03-24T10:20:25.365Z,998.51
2023-03-24T10:21:25.367Z,998.25
2023-03-24T10:22:25.400Z,998.21
2023-03-24T10:23:25.427Z,998.39
2023-03-24T10:24:25.459Z,998.41
2023-03-24T10:25:25.484Z,998.23
2023-03-24T10:26:25.519Z,998.29
2023-03-24T10:27:25.546Z,998.45
2023-03-24T10:28:25.575Z,998.32
2023-03-24T10:29:25.633Z,998.32
2023-03-24T10:30:25.650Z,998.28
2023-03-24T10:31:25.677Z,998.41
2023-03-24T10:32:25.727Z,998.33
2023-03-24T10:33:25.727Z,998.33
2023-03-24T10:34:25.754Z,998.35
2023-03-24T10:35:25.797Z,998.52
2023-03-24T10:36:25.831Z,998.50
2023-03-24T10:37:25.845Z,998.38
2023-03-24T10:38:25.875Z,998.40
2023-03-24T10:39:34.310Z,998.38
2023-03-24T10:40:25.931Z,998.37
2023-03-24T10:41:25.961Z,998.36
2023-03-24T10:42:25.990Z,998.36
2023-03-24T10:43:26.019Z,998.62
2023-03-24T10:44:26.050Z,998.51
2023-03-24T10:45:26.095Z,998.44
2023-03-24T10:46:26.194Z,998.36
2023-03-24T10:47:26.180Z,998.36
2023-03-24T10:48:26.175Z,998.38
2023-03-24T10:49:26.446Z,998.35
2023-03-24T10:50:26.227Z,998.37
2023-03-24T10:51:26.254Z,998.32
2023-03-24T10:52:26.285Z,998.33
2023-03-24T10:53:26.311Z,998.37
2023-03-24T10:54:26.357Z,998.46
2023-03-24T10:55:26.422Z,998.45
2023-03-24T10:56:26.420Z,998.48
2023-03-24T10:57:26.440Z,998.51
2023-03-24T10:58:26.458Z,998.47
2023-03-24T10:59:26.490Z,998.50
2023-03-24T11:00:26.517Z,998.51
2023-03-24T11:01:26.590Z,998.44
2023-03-24T11:02:26.740Z,998.45
2023-03-24T11:03:26.657Z,998.49
2023-03-24T11:04:26.629Z,998.56
2023-03-24T11:05:26.659Z,998.54
2023-03-24T11:06:26.687Z,998.50
2023-03-24T11:07:26.715Z,998.54
2023-03-24T11:08:26.781Z,998.52
2023-03-24T11:09:26.769Z,998.54
2023-03-24T11:10:26.802Z,998.56
2023-03-24T11:11:26.835Z,998.59
2023-03-24T11:12:26.862Z,998.57
2023-03-24T11:13:26.886Z,998.62
2023-03-24T11:14:26.923Z,998.66
2023-03-24T11:15:26.949Z,998.68
2023-03-24T11:16:26.978Z,998.62
2023-03-24T11:17:27.034Z,998.65
2023-03-24T11:18:27.026Z,998.66
2023-03-24T11:19:27.069Z,998.66
2023-03-24T11:20:27.096Z,998.66
2023-03-24T11:21:27.113Z,998.63
2023-03-24T11:22:27.150Z,998.62
2023-03-24T11:23:27.173Z,998.67
2023-03-24T11:24:27.202Z,998.67
2023-03-24T11:25:27.236Z,998.61
2023-03-24T11:26:27.257Z,998.65
2023-03-24T11:27:27.285Z,998.62
2023-03-24T11:28:27.314Z,998.86
2023-03-24T11:29:27.346Z,998.68
2023-03-24T11:30:27.370Z,998.63
2023-03-24T11:31:27.463Z,998.73
2023-03-24T11:32:27.493Z,998.78
2023-03-24T11:33:35.335Z,998.74
2023-03-24T11:34:27.490Z,998.78
2023-03-24T11:35:40.924Z,998.71
2023-03-24T11:36:27.638Z,998.54
2023-03-24T11:37:27.579Z,998.59
2023-03-24T11:38:27.605Z,998.60
2023-03-24T11:39:27.635Z,998.63
2023-03-24T11:40:27.663Z,998.61
2023-03-24T11:41:27.692Z,998.62
2023-03-24T11:42:27.727Z,998.63
2023-03-24T11:43:27.752Z,998.60
2023-03-24T11:44:27.784Z,998.59
2023-03-24T11:45:27.822Z,998.53
2023-03-24T11:46:27.872Z,998.60
2023-03-24T11:47:27.874Z,998.57
2023-03-24T11:48:27.897Z,998.50
2023-03-24T11:49:27.977Z,998.48
2023-03-24T11:50:27.957Z,998.49
2023-03-24T11:51:27.987Z,998.43
2023-03-24T11:52:28.016Z,998.44
2023-03-24T11:53:28.045Z,998.46
2023-03-24T11:54:29.609Z,998.50
2023-03-24T11:55:28.105Z,998.43
2023-03-24T11:56:28.173Z,998.50
2023-03-24T11:57:28.166Z,998.46
2023-03-24T11:58:28.200Z,998.62
2023-03-24T11:59:28.225Z,998.58
2023-03-24T12:00:29.847Z,998.67
2023-03-24T12:01:28.282Z,998.52
2023-03-24T12:02:28.486Z,998.65
2023-03-24T12:03:28.622Z,998.40
2023-03-24T12:04:28.379Z,998.47
2023-03-24T12:05:28.453Z,998.40
2023-03-24T12:06:28.505Z,998.34
2023-03-24T12:07:28.463Z,998.38
2023-03-24T12:08:28.500Z,998.34
2023-03-24T12:09:28.521Z,998.31
2023-03-24T12:10:28.551Z,998.24
2023-03-24T12:11:28.596Z,998.18
2023-03-24T12:12:28.617Z,998.23
2023-03-24T12:13:32.996Z,998.20
2023-03-24T12:14:28.669Z,998.22
2023-03-24T12:15:29.233Z,998.25
2023-03-24T12:16:28.789Z,998.32
2023-03-24T12:17:28.787Z,998.23
2023-03-24T12:18:28.788Z,998.25
2023-03-24T12:19:28.821Z,998.31
2023-03-24T12:20:28.847Z,998.29
2023-03-24T12:21:28.946Z,998.28
2023-03-24T12:22:28.924Z,998.34
2023-03-24T12:23:28.936Z,998.41
2023-03-24T12:24:28.987Z,998.31
2023-03-24T12:25:28.998Z,998.29
2023-03-24T12:26:29.023Z,998.26
2023-03-24T12:27:29.062Z,998.33
2023-03-24T12:28:29.085Z,998.29
2023-03-24T12:29:29.115Z,998.27
2023-03-24T12:30:29.145Z,998.21